Time;durP1;ratioP1;P1;durP2;ratioP2;P2;SDS_P1;SDS_P2;PMS_P1;PMS_P2;Temp;Humidity;BMP_temperature;BMP_pressure;BME280_temperature;BME280_humidity;BME280_pressure;Samples;Min_cycle;Max_cycle;Signal;HPM_P1;HPM_P2
2021/06/01 00:02:08;;;;;;;4.05;2.38;;;18.60;78.70;;;;;;4946642;29;20114;-76
2021/06/01 00:04:35;;;;;;;4.18;2.55;;;18.90;79.20;;;;;;4943024;28;20027;-73
2021/06/01 00:07:03;;;;;;;5.55;2.13;;;18.30;79.20;;;;;;4944045;28;20059;-72
2021/06/01 00:09:30;;;;;;;4.90;2.80;;;17.50;80.80;;;;;;4949868;28;20065;-76
2021/06/01 00:11:58;;;;;;;8.20;2.60;;;17.00;81.80;;;;;;4950741;28;20062;-75
2021/06/01 00:14:25;;;;;;;6.32;2.72;;;16.60;85.10;;;;;;4943855;28;20043;-74
2021/06/01 00:16:55;;;;;;;6.85;2.42;;;17.00;83.70;;;;;;4945356;28;20074;-76
2021/06/01 00:19:22;;;;;;;4.82;2.50;;;17.90;82.00;;;;;;4945714;28;20092;-75
2021/06/01 00:21:50;;;;;;;4.10;2.08;;;18.40;79.20;;;;;;4948199;29;20034;-70
2021/06/01 00:24:18;;;;;;;2.35;1.55;;;18.50;79.00;;;;;;4941969;28;20035;-74
2021/06/01 00:26:45;;;;;;;1.70;1.00;;;18.80;77.60;;;;;;4941972;29;20103;-76
2021/06/01 00:29:13;;;;;;;3.50;1.27;;;18.90;76.30;;;;;;4944844;28;20703;-76
2021/06/01 00:31:41;;;;;;;3.97;1.45;;;19.30;76.40;;;;;;4951769;29;20474;-73
2021/06/01 00:34:09;;;;;;;1.92;1.20;;;19.60;75.50;;;;;;4944811;29;20035;-74
2021/06/01 00:36:37;;;;;;;4.55;1.98;;;19.80;75.30;;;;;;4945816;28;20046;-74
2021/06/01 00:39:06;;;;;;;2.88;1.83;;;19.40;75.10;;;;;;4942944;29;20031;-75
2021/06/01 00:41:33;;;;;;;4.15;2.63;;;19.80;75.30;;;;;;4951546;29;20102;-74
2021/06/01 00:44:01;;;;;;;2.88;2.03;;;19.60;74.60;;;;;;4945905;28;20077;-74
2021/06/01 00:46:29;;;;;;;3.35;1.88;;;19.80;75.00;;;;;;4942070;28;20027;-73
2021/06/01 00:48:56;;;;;;;4.97;2.35;;;20.40;74.00;;;;;;4947180;28;20031;-71
2021/06/01 00:51:24;;;;;;;6.40;2.92;;;20.70;72.30;;;;;;4944283;29;20040;-74
2021/06/01 00:53:51;;;;;;;7.28;3.13;;;20.50;73.20;;;;;;4943521;28;20051;-75
2021/06/01 00:56:19;;;;;;;5.60;2.60;;;20.80;72.80;;;;;;4945685;28;20678;-75
2021/06/01 00:58:46;;;;;;;4.15;3.35;;;20.70;72.00;;;;;;4947455;29;20032;-76
2021/06/01 01:01:22;;;;;;;5.47;2.88;;;21.60;70.20;;;;;;4945491;29;20486;-71
2021/06/01 01:03:53;;;;;;;6.35;2.65;;;21.50;70.40;;;;;;4947352;28;20035;-71
2021/06/01 01:06:38;;;;;;;4.00;2.92;;;21.80;71.30;;;;;;4938677;28;20027;-74
2021/06/01 01:09:11;;;;;;;6.25;2.63;;;22.10;67.60;;;;;;4938461;28;20059;-73
2021/06/01 01:11:49;;;;;;;5.22;2.78;;;22.30;68.30;;;;;;4920466;28;20409;-72
2021/06/01 01:14:38;;;;;;;5.13;2.53;;;22.40;67.60;;;;;;4944255;28;20110;-77
2021/06/01 01:17:19;;;;;;;5.35;3.13;;;21.90;67.40;;;;;;4943750;28;20468;-77
2021/06/01 01:20:10;;;;;;;4.38;2.63;;;21.50;68.50;;;;;;4942485;28;20138;-74
2021/06/01 01:22:45;;;;;;;3.30;2.75;;;20.80;68.80;;;;;;4948771;28;20035;-72
2021/06/01 01:25:36;;;;;;;10.15;4.45;;;20.90;72.80;;;;;;4948926;28;20494;-73
2021/06/01 01:28:35;;;;;;;4.72;3.33;;;20.30;72.00;;;;;;4947041;28;20375;-75
2021/06/01 01:31:28;;;;;;;6.20;4.38;;;20.00;73.70;;;;;;4945441;29;20551;-74
2021/06/01 01:33:58;;;;;;;7.40;4.35;;;19.90;72.70;;;;;;4939927;28;20103;-73
2021/06/01 01:36:29;;;;;;;8.63;4.57;;;19.30;73.30;;;;;;4947528;28;20031;-73
2021/06/01 01:38:58;;;;;;;7.90;4.68;;;19.00;75.40;;;;;;4947044;28;20027;-74
2021/06/01 01:41:26;;;;;;;7.68;5.00;;;19.30;75.80;;;;;;4945990;28;20122;-71
2021/06/01 01:44:00;;;;;;;6.57;5.00;;;19.50;74.90;;;;;;4947915;28;20023;-70
2021/06/01 01:49:16;;;;;;;10.95;5.18;;;19.90;74.20;;;;;;4943324;28;20035;-69
2021/06/01 01:51:46;;;;;;;6.80;4.32;;;19.60;75.60;;;;;;4946653;28;20043;-70
2021/06/01 01:54:24;;;;;;;10.30;4.45;;;19.40;77.20;;;;;;4945540;28;20027;-73
2021/06/01 01:56:57;;;;;;;8.13;4.20;;;19.60;76.80;;;;;;4946155;28;20023;-71
2021/06/01 01:59:30;;;;;;;10.13;4.55;;;20.10;74.40;;;;;;4947697;28;20062;-73
2021/06/01 02:01:58;;;;;;;10.75;5.75;;;20.60;74.30;;;;;;4950156;28;20039;-71
2021/06/01 02:04:28;;;;;;;8.02;4.95;;;20.40;74.30;;;;;;4946854;28;20024;-70
2021/06/01 02:06:58;;;;;;;6.32;4.20;;;21.20;73.20;;;;;;4947694;28;20031;-74
2021/06/01 02:09:26;;;;;;;8.05;3.58;;;21.90;72.30;;;;;;4947267;28;20015;-72
2021/06/01 02:11:54;;;;;;;7.18;4.63;;;22.10;70.70;;;;;;4929355;29;20039;-72
2021/06/01 02:14:22;;;;;;;5.50;4.25;;;22.30;70.70;;;;;;4943635;28;20066;-75
2021/06/01 02:16:51;;;;;;;6.72;3.63;;;22.30;68.40;;;;;;4948433;28;20034;-74
2021/06/01 02:19:20;;;;;;;7.03;3.72;;;22.20;69.10;;;;;;4946445;28;20414;-76
2021/06/01 02:22:21;;;;;;;;;;;;;;;;;;;;;
2021/06/01 02:24:48;;;;;;;;;;;21.90;70.20;;;;;;4946738;28;20027;-69
2021/06/01 02:27:22;;;;;;;6.68;2.72;;;22.90;70.00;;;;;;4945962;28;19910;-70
2021/06/01 02:30:01;;;;;;;6.47;5.18;;;23.30;63.40;;;;;;4945004;28;20070;-68
2021/06/01 02:32:41;;;;;;;8.25;3.95;;;22.80;65.10;;;;;;4943593;28;20706;-71
2021/06/01 02:35:12;;;;;;;11.00;4.03;;;22.50;66.70;;;;;;4946652;28;20028;-71
2021/06/01 02:37:41;;;;;;;7.07;4.68;;;22.80;66.60;;;;;;4947485;28;20052;-70
2021/06/01 02:40:11;;;;;;;5.75;4.55;;;22.70;65.20;;;;;;4946264;28;20032;-71
2021/06/01 02:42:40;;;;;;;8.15;4.95;;;22.20;66.70;;;;;;4950493;28;20393;-71
2021/06/01 02:45:09;;;;;;;8.98;4.50;;;22.70;69.00;;;;;;4949917;28;20027;-72
2021/06/01 02:47:36;;;;;;;6.85;4.60;;;22.80;65.20;;;;;;4949325;28;20035;-71
2021/06/01 02:50:11;;;;;;;7.53;4.70;;;22.90;66.30;;;;;;4951097;28;20382;-69
2021/06/01 02:52:41;;;;;;;11.85;4.32;;;23.10;65.90;;;;;;4945072;28;20043;-70
2021/06/01 02:55:11;;;;;;;5.45;3.47;;;22.80;64.20;;;;;;4944145;28;20489;-70
2021/06/01 02:57:40;;;;;;;6.15;3.65;;;22.80;66.20;;;;;;4945451;28;20027;-71
2021/06/01 03:00:10;;;;;;;5.30;3.15;;;22.80;64.80;;;;;;4946109;28;20047;-70
2021/06/01 03:02:38;;;;;;;6.30;3.35;;;23.10;63.90;;;;;;4942279;28;20031;-71
2021/06/01 03:05:07;;;;;;;3.35;2.47;;;21.80;65.80;;;;;;4943744;28;20043;-70
2021/06/01 03:07:36;;;;;;;5.05;3.38;;;21.60;68.80;;;;;;4944444;28;20039;-71
2021/06/01 03:10:06;;;;;;;8.93;3.28;;;21.90;68.50;;;;;;4933851;28;20027;-69
2021/06/01 03:15:04;;;;;;;5.40;3.03;;;22.30;65.10;;;;;;4928483;29;20031;-71
2021/06/01 03:17:31;;;;;;;6.57;2.95;;;22.30;65.20;;;;;;4929362;29;20115;-69
2021/06/01 03:20:00;;;;;;;4.50;2.97;;;22.80;64.50;;;;;;4927797;29;20439;-70
2021/06/01 03:22:27;;;;;;;3.53;2.35;;;22.40;63.70;;;;;;4925420;29;20024;-70
2021/06/01 03:24:55;;;;;;;3.65;2.13;;;22.60;64.60;;;;;;4926164;29;20162;-69
2021/06/01 03:27:22;;;;;;;3.30;2.25;;;22.60;63.70;;;;;;4923201;29;20043;-70
2021/06/01 03:29:50;;;;;;;4.05;1.48;;;22.00;64.50;;;;;;4926951;29;20036;-70
2021/06/01 03:32:17;;;;;;;3.47;1.75;;;21.70;65.20;;;;;;4924353;29;20060;-70
2021/06/01 03:34:44;;;;;;;2.22;1.50;;;21.40;66.20;;;;;;4926569;29;21011;-70
2021/06/01 03:37:12;;;;;;;2.97;1.85;;;21.10;67.00;;;;;;4928025;29;20350;-67
2021/06/01 03:39:39;;;;;;;3.28;2.10;;;20.80;66.50;;;;;;4927160;29;20028;-68
2021/06/01 03:42:11;;;;;;;2.25;1.40;;;20.50;68.00;;;;;;4925894;29;20198;-69
2021/06/01 03:44:41;;;;;;;2.65;1.40;;;20.40;67.40;;;;;;4925803;29;20036;-68
2021/06/01 03:47:08;;;;;;;2.50;1.23;;;20.20;68.30;;;;;;4924449;29;20034;-67
2021/06/01 03:49:36;;;;;;;5.20;1.73;;;20.30;67.20;;;;;;4926930;29;20118;-69
2021/06/01 03:52:08;;;;;;;5.03;1.00;;;20.20;68.30;;;;;;4926507;29;20051;-68
2021/06/01 03:54:36;;;;;;;3.25;1.15;;;19.90;67.70;;;;;;4925993;29;20070;-68
2021/06/01 03:57:05;;;;;;;1.60;0.90;;;19.70;68.50;;;;;;4922415;29;20035;-71
2021/06/01 03:59:33;;;;;;;2.33;1.20;;;19.30;67.60;;;;;;4927467;29;20032;-72
2021/06/01 04:02:00;;;;;;;2.00;0.93;;;19.20;69.20;;;;;;4926174;29;20039;-70
2021/06/01 04:04:28;;;;;;;1.52;0.90;;;19.00;69.60;;;;;;4923544;29;20024;-72
2021/06/01 04:06:55;;;;;;;1.70;0.90;;;19.00;69.40;;;;;;4924499;29;20038;-69
2021/06/01 04:09:22;;;;;;;2.47;0.60;;;19.00;70.20;;;;;;4925865;29;20028;-70
2021/06/01 04:11:50;;;;;;;2.22;0.75;;;19.00;70.70;;;;;;4923883;29;20573;-69
2021/06/01 04:14:19;;;;;;;1.60;0.80;;;18.90;69.50;;;;;;4926111;29;20034;-70
2021/06/01 04:16:47;;;;;;;0.95;0.45;;;18.80;70.70;;;;;;4924295;29;20028;-68
2021/06/01 04:19:16;;;;;;;2.17;0.90;;;18.70;70.70;;;;;;4924510;29;20027;-74
2021/06/01 04:21:43;;;;;;;0.85;0.60;;;18.50;70.00;;;;;;4923386;29;20046;-68
2021/06/01 04:24:13;;;;;;;1.10;0.60;;;18.30;70.30;;;;;;4926930;29;20056;-70
2021/06/01 04:26:41;;;;;;;2.67;1.30;;;18.10;70.80;;;;;;4926264;29;20050;-72
2021/06/01 04:29:08;;;;;;;1.98;0.57;;;18.10;71.20;;;;;;4922792;29;20523;-73
2021/06/01 04:31:35;;;;;;;1.08;0.50;;;18.00;71.90;;;;;;4926833;29;20069;-71
2021/06/01 04:34:03;;;;;;;5.53;0.70;;;17.90;72.60;;;;;;4923562;29;20023;-73
2021/06/01 04:36:30;;;;;;;1.35;0.70;;;17.80;73.50;;;;;;4925849;29;20036;-71
2021/06/01 04:38:58;;;;;;;1.38;0.60;;;17.80;73.80;;;;;;4927272;29;20038;-71
2021/06/01 04:41:25;;;;;;;2.67;0.60;;;17.90;75.10;;;;;;4925573;28;20043;-71
2021/06/01 04:43:52;;;;;;;0.82;0.55;;;17.90;74.30;;;;;;4908374;29;20391;-73
2021/06/01 04:46:21;;;;;;;2.45;0.80;;;17.90;74.70;;;;;;4924056;29;20660;-73
2021/06/01 04:48:48;;;;;;;0.93;0.52;;;17.90;74.80;;;;;;4921964;29;20038;-73
2021/06/01 04:51:19;;;;;;;1.50;0.70;;;17.90;74.90;;;;;;4923385;29;20388;-75
2021/06/01 04:53:48;;;;;;;1.30;0.65;;;17.80;74.90;;;;;;4925993;29;20071;-75
2021/06/01 04:56:16;;;;;;;0.57;0.40;;;17.80;75.40;;;;;;4922182;29;20035;-75
2021/06/01 04:58:43;;;;;;;2.25;0.60;;;17.70;76.20;;;;;;4925026;29;20031;-74
2021/06/01 05:01:10;;;;;;;1.58;0.65;;;17.80;77.20;;;;;;4925586;29;20051;-74
2021/06/01 05:03:38;;;;;;;1.08;0.77;;;17.80;78.70;;;;;;4924792;29;20387;-71
2021/06/01 05:06:07;;;;;;;3.15;0.68;;;17.90;77.20;;;;;;4926118;29;20031;-74
2021/06/01 05:08:35;;;;;;;3.08;0.93;;;17.90;76.30;;;;;;4926155;29;20391;-72
2021/06/01 05:11:04;;;;;;;1.98;0.75;;;17.80;75.80;;;;;;4925652;29;20091;-76
2021/06/01 05:13:32;;;;;;;1.08;0.85;;;17.80;76.50;;;;;;4929820;29;20035;-75
2021/06/01 05:15:59;;;;;;;6.00;1.42;;;17.90;77.10;;;;;;4902936;29;20395;-74
2021/06/01 05:18:27;;;;;;;1.98;1.25;;;17.90;78.70;;;;;;4920717;29;20043;-76
2021/06/01 05:20:54;;;;;;;3.00;1.30;;;17.90;79.80;;;;;;4925215;29;20028;-76
2021/06/01 05:23:22;;;;;;;3.80;1.67;;;17.90;79.70;;;;;;4929586;29;20046;-76
2021/06/01 05:25:49;;;;;;;4.00;1.70;;;17.80;79.70;;;;;;4906490;29;20015;-77
2021/06/01 05:28:17;;;;;;;4.07;1.83;;;17.80;80.80;;;;;;4930169;29;20076;-77
2021/06/01 05:33:20;;;;;;;4.13;1.60;;;17.70;79.90;;;;;;4923366;29;20167;-76
2021/06/01 05:35:52;;;;;;;4.05;1.77;;;17.70;80.70;;;;;;4924651;29;20066;-74
2021/06/01 05:38:29;;;;;;;3.20;1.30;;;17.70;82.20;;;;;;4924493;29;20060;-74
2021/06/01 05:40:58;;;;;;;3.80;1.90;;;17.70;81.30;;;;;;4925493;29;20054;-74
2021/06/01 05:43:26;;;;;;;2.08;1.30;;;17.70;82.40;;;;;;4924988;29;20034;-76
2021/06/01 05:45:53;;;;;;;1.80;1.35;;;17.70;82.30;;;;;;4929799;29;20359;-76
2021/06/01 05:48:21;;;;;;;2.25;1.45;;;17.70;82.50;;;;;;4927210;29;20044;-75
2021/06/01 05:50:48;;;;;;;3.85;1.40;;;17.60;82.20;;;;;;4912525;29;20039;-77
2021/06/01 05:53:19;;;;;;;4.75;1.95;;;17.50;82.40;;;;;;4928258;29;20059;-74
2021/06/01 05:55:46;;;;;;;2.28;1.35;;;17.50;81.20;;;;;;4929602;29;20027;-72
2021/06/01 05:58:14;;;;;;;9.10;1.98;;;17.50;81.70;;;;;;4930186;29;20039;-76
2021/06/01 06:00:41;;;;;;;3.47;1.10;;;17.50;82.00;;;;;;4929512;29;20052;-74
2021/06/01 06:03:09;;;;;;;4.93;1.85;;;17.50;82.70;;;;;;4929784;29;20122;-77
2021/06/01 06:05:37;;;;;;;2.03;1.15;;;17.50;82.90;;;;;;4927669;29;20494;-75
2021/06/01 06:08:12;;;;;;;2.47;1.55;;;17.50;81.80;;;;;;4931083;29;20400;-77
2021/06/01 06:10:40;;;;;;;1.92;1.50;;;17.50;82.70;;;;;;4934999;29;20379;-77
2021/06/01 06:13:09;;;;;;;2.65;1.42;;;17.50;83.90;;;;;;4931414;29;20171;-76
2021/06/01 06:15:37;;;;;;;1.70;1.13;;;17.50;85.10;;;;;;4926324;29;20411;-77
2021/06/01 06:18:13;;;;;;;2.78;1.45;;;17.60;85.10;;;;;;4928733;29;20024;-74
2021/06/01 06:20:41;;;;;;;2.83;1.23;;;17.60;85.50;;;;;;4926488;29;20050;-78
2021/06/01 06:23:08;;;;;;;3.00;1.40;;;17.40;84.50;;;;;;4930498;29;20028;-77
2021/06/01 06:25:36;;;;;;;3.08;1.40;;;17.30;83.70;;;;;;4933217;29;20036;-77
2021/06/01 06:28:03;;;;;;;2.88;1.80;;;17.30;82.90;;;;;;4926845;29;20347;-75
2021/06/01 06:30:31;;;;;;;3.40;1.70;;;17.20;83.30;;;;;;4929233;29;20035;-78
2021/06/01 06:32:58;;;;;;;3.42;1.90;;;17.10;83.30;;;;;;4920985;29;20036;-75
2021/06/01 06:35:26;;;;;;;4.35;1.35;;;17.00;83.20;;;;;;4930971;29;20038;-76
2021/06/01 06:37:54;;;;;;;3.38;1.20;;;16.90;83.50;;;;;;4926954;29;20058;-75
2021/06/01 06:40:21;;;;;;;6.55;2.38;;;16.80;84.40;;;;;;4929385;29;20024;-75
2021/06/01 06:42:49;;;;;;;3.70;1.35;;;16.80;86.60;;;;;;4930368;29;20042;-75
2021/06/01 06:45:17;;;;;;;4.90;2.70;;;16.70;87.20;;;;;;4923808;29;20549;-74
2021/06/01 06:50:22;;;;;;;5.32;2.55;;;16.50;88.70;;;;;;4930839;29;20034;-76
2021/06/01 06:52:50;;;;;;;5.35;3.20;;;16.40;89.30;;;;;;4932277;29;20051;-76
2021/06/01 06:55:18;;;;;;;4.28;2.38;;;16.30;90.10;;;;;;4934018;29;20086;-75
2021/06/01 06:57:45;;;;;;;5.97;2.63;;;16.20;90.30;;;;;;4928669;29;20036;-76
2021/06/01 07:00:26;;;;;;;4.85;2.50;;;16.00;90.70;;;;;;4924647;29;20502;-76
2021/06/01 07:02:53;;;;;;;5.78;2.78;;;16.00;90.30;;;;;;4926275;29;20047;-74
2021/06/01 07:05:22;;;;;;;4.40;3.28;;;15.80;90.20;;;;;;4931568;29;20024;-76
2021/06/01 07:07:53;;;;;;;4.80;4.07;;;15.70;90.40;;;;;;4923104;29;20107;-75
2021/06/01 07:10:22;;;;;;;5.80;4.40;;;15.60;90.60;;;;;;4929124;29;20032;-75
2021/06/01 07:12:49;;;;;;;7.60;4.00;;;15.60;90.60;;;;;;4927072;29;20077;-76
2021/06/01 07:15:23;;;;;;;8.00;4.72;;;15.50;90.90;;;;;;4932019;29;21265;-74
2021/06/01 07:17:56;;;;;;;11.07;6.00;;;15.40;91.00;;;;;;4929348;29;20032;-76
2021/06/01 07:20:26;;;;;;;6.63;4.70;;;15.30;91.10;;;;;;4925219;29;20079;-72
2021/06/01 07:22:53;;;;;;;8.10;4.38;;;15.20;91.20;;;;;;4928502;29;20020;-74
2021/06/01 07:25:20;;;;;;;8.82;5.30;;;15.10;91.50;;;;;;4929466;29;20032;-76
2021/06/01 07:27:48;;;;;;;7.88;5.18;;;15.00;91.70;;;;;;4929824;29;20036;-76
2021/06/01 07:30:16;;;;;;;8.15;5.68;;;14.80;92.00;;;;;;4926743;29;20420;-76
2021/06/01 07:32:43;;;;;;;11.45;7.18;;;14.80;92.20;;;;;;4927002;29;20091;-73
2021/06/01 07:35:11;;;;;;;10.65;7.35;;;14.70;92.50;;;;;;4933651;29;20058;-76
2021/06/01 07:37:39;;;;;;;11.43;6.85;;;14.60;92.80;;;;;;4922220;29;20039;-75
2021/06/01 07:40:07;;;;;;;11.05;7.25;;;14.60;92.80;;;;;;4908012;29;20047;-75
2021/06/01 07:42:35;;;;;;;11.95;6.88;;;14.60;93.10;;;;;;4929934;29;20061;-76
2021/06/01 07:45:03;;;;;;;11.00;6.18;;;14.50;93.20;;;;;;4924172;29;20050;-74
2021/06/01 07:47:30;;;;;;;8.10;6.25;;;14.50;93.40;;;;;;4932707;29;20031;-74
2021/06/01 07:49:57;;;;;;;9.75;6.47;;;14.40;93.50;;;;;;4928581;29;20024;-72
2021/06/01 07:52:27;;;;;;;8.15;5.75;;;14.40;93.50;;;;;;4925835;29;20501;-75
2021/06/01 07:54:56;;;;;;;7.45;5.50;;;14.30;93.70;;;;;;4927516;29;20095;-77
2021/06/01 07:57:24;;;;;;;8.93;3.90;;;14.20;93.90;;;;;;4925138;29;20031;-73
2021/06/01 07:59:51;;;;;;;4.95;3.63;;;14.20;94.00;;;;;;4928315;29;20040;-74
2021/06/01 08:02:19;;;;;;;8.10;5.72;;;14.20;94.10;;;;;;4923409;29;20068;-74
2021/06/01 08:04:47;;;;;;;7.57;3.60;;;14.20;94.10;;;;;;4931003;29;20056;-75
2021/06/01 08:07:16;;;;;;;8.35;4.15;;;14.20;94.10;;;;;;4927666;29;20031;-74
2021/06/01 08:09:44;;;;;;;8.20;4.88;;;14.20;94.10;;;;;;4925244;29;20035;-72
2021/06/01 08:12:11;;;;;;;6.47;4.82;;;14.10;94.10;;;;;;4923390;28;20050;-75
2021/06/01 08:14:39;;;;;;;7.35;4.45;;;14.10;94.00;;;;;;4922352;29;20154;-71
2021/06/01 08:17:06;;;;;;;8.50;3.85;;;14.10;93.90;;;;;;4924600;29;20027;-69
2021/06/01 08:19:37;;;;;;;7.55;4.85;;;14.00;93.90;;;;;;4923217;29;20091;-70
2021/06/01 08:24:33;;;;;;;5.15;3.50;;;14.10;94.00;;;;;;4922669;29;20032;-71
2021/06/01 08:27:00;;;;;;;8.95;5.05;;;14.10;94.00;;;;;;4924377;29;20534;-70
2021/06/01 08:29:27;;;;;;;10.57;5.30;;;14.10;93.90;;;;;;4924158;29;20456;-75
2021/06/01 08:31:55;;;;;;;12.23;6.15;;;14.10;94.00;;;;;;4925863;29;20478;-70
2021/06/01 08:34:22;;;;;;;9.68;5.97;;;14.00;94.10;;;;;;4923251;29;20038;-72
2021/06/01 08:36:51;;;;;;;9.98;7.43;;;14.00;94.30;;;;;;4924412;29;20597;-70
2021/06/01 08:39:28;;;;;;;8.85;6.18;;;14.00;94.40;;;;;;4925631;29;20032;-69
2021/06/01 08:41:57;;;;;;;12.02;7.13;;;13.90;94.60;;;;;;4923731;29;20676;-70
2021/06/01 08:44:27;;;;;;;12.85;6.15;;;13.90;94.70;;;;;;4927814;29;20059;-71
2021/06/01 08:46:56;;;;;;;10.45;6.25;;;13.90;94.80;;;;;;4923897;29;20119;-72
2021/06/01 08:49:24;;;;;;;10.38;6.68;;;13.80;94.90;;;;;;4923812;29;20023;-68
2021/06/01 08:51:51;;;;;;;9.45;7.15;;;13.70;95.00;;;;;;4924271;29;20126;-69
2021/06/01 08:54:19;;;;;;;11.27;7.03;;;13.60;95.30;;;;;;4925183;29;20027;-70
2021/06/01 08:56:47;;;;;;;10.32;7.25;;;13.50;95.50;;;;;;4924969;29;20495;-74
2021/06/01 08:59:15;;;;;;;9.70;7.65;;;13.40;95.60;;;;;;4924217;29;20043;-73
2021/06/01 09:01:43;;;;;;;9.07;6.53;;;13.30;95.70;;;;;;4924524;29;20047;-70
2021/06/01 09:04:12;;;;;;;9.35;5.18;;;13.30;95.70;;;;;;4927728;29;20111;-72
2021/06/01 09:06:53;;;;;;;9.00;5.47;;;13.20;95.80;;;;;;4924612;29;20032;-71
2021/06/01 09:09:38;;;;;;;8.65;5.57;;;13.10;95.90;;;;;;4925374;29;20030;-72
2021/06/01 09:15:16;;;;;;;8.20;5.63;;;13.00;96.10;;;;;;4926914;29;20075;-69
2021/06/01 09:23:07;;;;;;;12.82;5.93;;;12.80;96.40;;;;;;4922306;29;20838;-71
2021/06/01 09:25:49;;;;;;;8.30;4.75;;;12.80;96.40;;;;;;4923859;29;20079;-71
2021/06/01 09:28:17;;;;;;;10.65;4.47;;;12.80;96.60;;;;;;4922796;29;20036;-69
2021/06/01 09:30:58;;;;;;;6.50;4.80;;;12.70;96.60;;;;;;4925795;29;20024;-72
2021/06/01 09:33:31;;;;;;;12.88;5.35;;;12.70;96.80;;;;;;4926515;29;20019;-72
2021/06/01 09:36:04;;;;;;;8.50;4.70;;;12.60;96.80;;;;;;4923568;29;20028;-73
2021/06/01 09:38:44;;;;;;;10.75;4.47;;;12.60;97.00;;;;;;4924817;29;20031;-74
2021/06/01 09:41:14;;;;;;;7.30;5.32;;;12.50;97.00;;;;;;4920227;29;20027;-77
2021/06/01 09:43:52;;;;;;;10.02;5.57;;;12.50;97.00;;;;;;4915114;29;20098;-75
2021/06/01 09:46:22;;;;;;;7.63;4.68;;;12.50;97.10;;;;;;4924702;29;20035;-74
2021/06/01 09:48:52;;;;;;;7.22;4.63;;;12.40;97.50;;;;;;4926023;29;20474;-70
2021/06/01 09:51:37;;;;;;;11.05;5.05;;;12.40;97.30;;;;;;4907943;29;20040;-73
2021/06/01 09:54:43;;;;;;;8.70;5.80;;;12.50;97.10;;;;;;4927262;29;20032;-69
2021/06/01 09:57:22;;;;;;;7.28;5.07;;;12.40;96.90;;;;;;4926783;29;20035;-74
2021/06/01 10:00:14;;;;;;;11.00;5.35;;;12.30;97.00;;;;;;4928921;29;20043;-73
2021/06/01 10:02:43;;;;;;;5.90;4.18;;;12.20;97.00;;;;;;4928047;29;20031;-71
2021/06/01 10:05:12;;;;;;;9.20;5.78;;;12.10;97.10;;;;;;4926561;29;20028;-69
2021/06/01 10:07:43;;;;;;;7.18;4.75;;;12.00;97.50;;;;;;4927992;29;20024;-72
2021/06/01 10:10:22;;;;;;;10.43;5.55;;;11.90;98.10;;;;;;4926625;29;20031;-73
2021/06/01 10:12:52;;;;;;;10.00;5.32;;;11.80;98.30;;;;;;4924541;29;20051;-72
2021/06/01 10:15:22;;;;;;;11.38;5.28;;;11.80;98.00;;;;;;4924116;29;20668;-73
2021/06/01 10:17:51;;;;;;;11.95;6.50;;;11.70;98.10;;;;;;4928241;29;20510;-72
2021/06/01 10:20:24;;;;;;;10.30;6.55;;;11.70;98.10;;;;;;4925912;29;20082;-73
2021/06/01 10:22:52;;;;;;;11.27;6.88;;;11.70;98.40;;;;;;4925325;29;20139;-73
2021/06/01 10:25:23;;;;;;;12.80;7.22;;;11.70;98.40;;;;;;4925394;29;20062;-72
2021/06/01 10:27:52;;;;;;;10.52;6.68;;;11.60;98.40;;;;;;4927259;29;20031;-71
2021/06/01 10:30:21;;;;;;;10.63;6.97;;;11.60;98.60;;;;;;4928788;29;20094;-71
2021/06/01 10:32:59;;;;;;;13.05;7.13;;;11.60;98.40;;;;;;4929396;29;20104;-71
2021/06/01 10:35:31;;;;;;;13.40;8.80;;;11.50;98.40;;;;;;4925927;29;20032;-71
2021/06/01 10:50:41;;;;;;;24.13;12.85;;;11.40;99.60;;;;;;4932425;29;20104;-70
2021/06/01 10:53:19;;;;;;;23.60;13.18;;;11.50;99.70;;;;;;4925718;29;20059;-73
2021/06/01 10:55:55;;;;;;;19.05;12.68;;;11.40;99.70;;;;;;4926218;29;20559;-71
2021/06/01 10:58:31;;;;;;;23.35;12.68;;;11.40;99.40;;;;;;4922903;29;20099;-69
2021/06/01 11:04:30;;;;;;;20.65;11.05;;;11.20;99.70;;;;;;4926430;29;20070;-74
2021/06/01 11:09:34;;;;;;;17.25;12.75;;;11.10;99.60;;;;;;4923534;29;20156;-71
2021/06/01 11:12:21;;;;;;;18.90;11.90;;;11.00;99.30;;;;;;4926473;29;20521;-71
2021/06/01 11:14:51;;;;;;;20.77;12.50;;;10.90;99.60;;;;;;4928462;29;20083;-70
2021/06/01 11:17:50;;;;;;;20.05;12.63;;;10.90;99.40;;;;;;4929264;29;20039;-71
2021/06/01 11:20:41;;;;;;;20.60;13.50;;;10.90;99.30;;;;;;4889631;29;20035;-72
2021/06/01 11:23:57;;;;;;;22.05;15.48;;;10.80;99.70;;;;;;4927017;29;20032;-71
2021/06/01 11:34:00;;;;;;;20.67;11.75;;;10.70;99.90;;;;;;4931391;29;20062;-71
2021/06/01 11:36:37;;;;;;;19.63;11.93;;;10.70;99.70;;;;;;4922897;29;20058;-73
2021/06/01 11:44:39;;;;;;;15.23;10.15;;;10.40;99.40;;;;;;4925380;29;20102;-70
2021/06/01 11:47:27;;;;;;;16.90;10.40;;;10.40;99.70;;;;;;4925912;29;20111;-72
2021/06/01 11:52:40;;;;;;;16.40;8.48;;;10.40;99.10;;;;;;4926273;29;20414;-68
2021/06/01 11:55:09;;;;;;;15.35;8.95;;;10.20;99.40;;;;;;4927816;29;20019;-68
2021/06/01 12:03:18;;;;;;;11.57;8.30;;;10.30;99.40;;;;;;4927906;29;20047;-71
2021/06/01 12:11:58;;;;;;;14.23;8.73;;;10.40;99.80;;;;;;4925637;29;20066;-73
2021/06/01 12:17:17;;;;;;;14.55;9.80;;;10.30;99.70;;;;;;4929295;29;20828;-71
2021/06/01 12:19:44;;;;;;;15.93;9.23;;;10.30;99.70;;;;;;4929359;29;20027;-70
2021/06/01 12:22:12;;;;;;;13.07;8.75;;;10.20;99.60;;;;;;4927757;29;20090;-72
2021/06/01 12:24:42;;;;;;;19.15;10.38;;;10.20;99.60;;;;;;4921888;29;20024;-70
2021/06/01 12:32:32;;;;;;;12.82;8.85;;;10.20;99.90;;;;;;4922863;29;20115;-72
2021/06/01 12:46:13;;;;;;;14.52;8.52;;;10.20;99.90;;;;;;4926272;29;20020;-73
2021/06/01 13:19:50;;;;;;;20.45;11.63;;;9.80;99.80;;;;;;4930679;29;20033;-71
2021/06/01 13:22:51;;;;;;;21.85;12.23;;;9.80;99.80;;;;;;4926466;29;20035;-69
2021/06/01 13:39:58;;;;;;;16.33;11.30;;;9.60;99.90;;;;;;4915893;29;20051;-70
2021/06/01 13:48:27;;;;;;;22.42;13.05;;;9.50;99.90;;;;;;4930989;29;22716;-71
2021/06/01 13:56:12;;;;;;;17.55;10.70;;;9.30;99.90;;;;;;4927840;29;20114;-74
2021/06/01 14:01:22;;;;;;;20.80;12.23;;;9.40;99.90;;;;;;4925017;29;20139;-72
2021/06/01 14:09:54;;;;;;;22.30;11.68;;;9.70;99.90;;;;;;4925324;29;20083;-70
2021/06/01 14:15:26;;;;;;;22.30;16.02;;;9.80;99.90;;;;;;4924902;29;20055;-70
2021/06/01 15:04:47;;;;;;;21.42;13.27;;;9.60;99.90;;;;;;4928611;29;20035;-70
2021/06/01 15:48:25;;;;;;;23.42;14.00;;;9.10;99.90;;;;;;4930185;29;20039;-72
2021/06/01 16:13:41;;;;;;;18.00;9.88;;;9.00;99.90;;;;;;4924059;29;20046;-72
2021/06/01 16:30:18;;;;;;;17.88;11.00;;;8.70;99.90;;;;;;4924954;29;20035;-71
2021/06/01 16:44:06;;;;;;;15.25;10.48;;;8.60;99.90;;;;;;4926078;29;20047;-73
2021/06/01 17:03:18;;;;;;;16.77;10.73;;;8.70;99.90;;;;;;4928550;29;20075;-73
2021/06/01 17:11:18;;;;;;;12.70;9.77;;;8.80;99.90;;;;;;4932529;29;20094;-74
2021/06/01 17:13:55;;;;;;;16.40;11.05;;;8.70;99.90;;;;;;4927360;29;20036;-71
2021/06/01 17:16:49;;;;;;;13.95;9.57;;;8.70;99.90;;;;;;4924024;29;20491;-74
2021/06/01 17:31:26;;;;;;;17.80;10.13;;;8.70;99.90;;;;;;4923166;29;20038;-71
2021/06/01 17:35:49;;;;;;;13.23;9.67;;;8.70;99.90;;;;;;4929288;29;20081;-73
2021/06/01 17:38:16;;;;;;;18.23;10.23;;;8.70;99.90;;;;;;4930359;29;20438;-72
2021/06/01 17:40:45;;;;;;;15.20;9.55;;;8.60;99.90;;;;;;4924089;29;20462;-73
2021/06/01 17:43:13;;;;;;;14.88;10.25;;;8.50;99.90;;;;;;4924445;29;20040;-72
2021/06/01 17:45:45;;;;;;;14.10;9.80;;;8.50;99.90;;;;;;4920589;29;20032;-73
2021/06/01 17:48:39;;;;;;;14.98;9.73;;;8.40;99.90;;;;;;4927888;29;20083;-73
2021/06/01 17:51:07;;;;;;;17.75;11.23;;;8.30;99.90;;;;;;4919290;29;20120;-68
2021/06/01 17:53:46;;;;;;;25.23;13.05;;;8.30;99.90;;;;;;4928053;29;20039;-73
2021/06/01 17:56:20;;;;;;;18.33;10.57;;;8.30;99.90;;;;;;4905502;29;20083;-74
2021/06/01 17:58:48;;;;;;;18.70;11.35;;;8.30;99.90;;;;;;4924074;29;20035;-70
2021/06/01 18:01:18;;;;;;;21.27;11.15;;;8.30;99.90;;;;;;4925778;29;20055;-73
2021/06/01 18:06:28;;;;;;;;;;;8.20;99.90;;;;;;4928169;29;20032;-73
2021/06/01 18:12:07;;;;;;;18.23;11.05;;;8.10;99.90;;;;;;4896964;29;20051;-73
2021/06/01 18:42:55;;;;;;;17.10;9.50;;;7.70;99.90;;;;;;4930435;29;20043;-73
2021/06/01 19:24:13;;;;;;;;;;;7.00;99.90;;;;;;4928678;29;20059;-73
2021/06/01 19:27:12;;;;;;;23.60;8.85;;;7.10;99.90;;;;;;4922450;29;19918;-72
2021/06/01 19:29:59;;;;;;;18.52;9.38;;;7.20;99.90;;;;;;4931967;29;20039;-74
2021/06/01 19:50:22;;;;;;;14.63;8.80;;;6.70;99.90;;;;;;4933077;29;20502;-73
2021/06/01 19:52:44;;;;;;;16.42;9.18;;;6.70;99.90;;;;;;4922722;29;20111;-73
2021/06/01 19:55:13;;;;;;;15.57;8.82;;;6.60;99.90;;;;;;4932621;29;20035;-73
2021/06/01 19:57:40;;;;;;;20.90;9.25;;;6.70;99.90;;;;;;4925643;29;20039;-73
2021/06/01 20:00:10;;;;;;;13.40;8.70;;;6.70;99.90;;;;;;4923452;29;20101;-71
2021/06/01 20:02:39;;;;;;;16.75;9.27;;;6.60;99.90;;;;;;4925104;29;20039;-73
2021/06/01 20:05:14;;;;;;;13.60;9.98;;;6.70;99.90;;;;;;4928478;29;20086;-74